createdAt,value
2018-11-03T00:01:00.745Z,88.75
2018-11-03T00:03:28.634Z,89.53
2018-11-03T00:05:56.936Z,90.65
2018-11-03T00:08:25.228Z,89.78
2018-11-03T00:10:53.329Z,89.62
2018-11-03T00:13:21.256Z,89.60
2018-11-03T00:15:49.217Z,90.65
2018-11-03T00:18:17.266Z,90.96
2018-11-03T00:20:45.226Z,90.99
2018-11-03T00:23:13.291Z,91.24
2018-11-03T00:25:41.267Z,91.78
2018-11-03T00:28:09.363Z,91.47
2018-11-03T00:30:37.365Z,91.51
2018-11-03T00:33:05.585Z,91.97
2018-11-03T00:35:33.526Z,92.09
2018-11-03T00:38:01.468Z,92.01
2018-11-03T00:40:29.463Z,91.53
2018-11-03T00:42:57.575Z,91.59
2018-11-03T00:45:25.501Z,91.58
2018-11-03T00:47:53.424Z,90.24
2018-11-03T00:50:21.425Z,91.52
2018-11-03T00:52:49.341Z,91.10
2018-11-03T00:55:17.311Z,91.68
2018-11-03T00:57:45.213Z,91.44
2018-11-03T01:00:15.301Z,91.27
2018-11-03T01:02:44.383Z,91.67
2018-11-03T01:05:12.821Z,91.07
2018-11-03T01:07:41.592Z,91.32
2018-11-03T01:10:09.768Z,90.77
2018-11-03T01:12:38.508Z,90.46
2018-11-03T01:15:08.289Z,90.64
2018-11-03T01:17:36.204Z,89.20
2018-11-03T01:20:04.851Z,89.73
2018-11-03T01:22:32.757Z,89.93
2018-11-03T01:25:00.725Z,88.67
2018-11-03T01:27:28.660Z,88.80
2018-11-03T01:29:56.600Z,89.49
2018-11-03T01:32:24.591Z,89.80
2018-11-03T01:34:52.582Z,89.18
2018-11-03T01:37:20.537Z,89.44
2018-11-03T01:39:48.513Z,89.90
2018-11-03T01:42:16.474Z,90.05
2018-11-03T01:44:44.437Z,89.81
2018-11-03T01:47:12.386Z,89.71
2018-11-03T01:49:40.379Z,90.66
2018-11-03T01:52:08.309Z,90.45
2018-11-03T01:54:36.360Z,90.52
2018-11-03T01:57:04.492Z,89.81
2018-11-03T01:59:32.539Z,89.73
2018-11-03T02:02:00.524Z,89.70
2018-11-03T02:04:28.418Z,90.32
2018-11-03T02:06:56.344Z,91.11
2018-11-03T02:09:24.297Z,91.22
2018-11-03T02:11:52.389Z,92.51
2018-11-03T02:14:20.335Z,92.82
2018-11-03T02:16:48.458Z,92.62
2018-11-03T02:19:16.474Z,92.93
2018-11-03T02:21:44.507Z,92.68
2018-11-03T02:24:12.616Z,93.26
2018-11-03T02:26:40.624Z,93.69
2018-11-03T02:29:08.934Z,93.16
2018-11-03T02:31:37.152Z,92.19
2018-11-03T02:34:05.125Z,92.54
2018-11-03T02:36:33.136Z,92.96
2018-11-03T02:39:01.078Z,92.66
2018-11-03T02:41:29.348Z,94.18
2018-11-03T02:43:57.399Z,94.08
2018-11-03T02:46:25.301Z,94.56
2018-11-03T02:48:53.214Z,94.05
2018-11-03T02:51:21.161Z,95.02
2018-11-03T02:53:49.241Z,94.97
2018-11-03T02:56:17.240Z,95.21
2018-11-03T02:58:45.395Z,95.20
2018-11-03T03:01:13.361Z,94.86
2018-11-03T03:03:41.425Z,94.57
2018-11-03T03:06:09.343Z,94.81
2018-11-03T03:08:37.263Z,95.19
2018-11-03T03:11:05.292Z,95.25
2018-11-03T03:13:33.232Z,95.72
2018-11-03T03:16:01.195Z,95.06
2018-11-03T03:18:29.161Z,95.12
2018-11-03T03:20:57.091Z,95.47
2018-11-03T03:23:24.985Z,95.57
2018-11-03T03:25:53.029Z,95.83
2018-11-03T03:28:20.965Z,96.94
2018-11-03T03:30:48.900Z,96.27
2018-11-03T03:33:16.883Z,95.72
2018-11-03T03:35:44.923Z,96.33
2018-11-03T03:38:12.817Z,95.87
2018-11-03T03:40:40.856Z,96.09
2018-11-03T03:43:08.773Z,96.02
2018-11-03T03:45:36.751Z,95.66
2018-11-03T03:48:04.746Z,95.79
2018-11-03T03:50:32.707Z,96.46
2018-11-03T03:53:00.753Z,95.28
2018-11-03T03:55:28.734Z,95.51
2018-11-03T03:57:56.876Z,96.48
2018-11-03T04:00:24.945Z,96.09
2018-11-03T04:02:52.971Z,96.01
2018-11-03T04:05:20.928Z,96.79
2018-11-03T04:07:48.899Z,97.28
2018-11-03T04:10:16.955Z,97.33
2018-11-03T04:12:45.096Z,98.04
2018-11-03T04:15:13.126Z,97.74
2018-11-03T04:17:41.191Z,97.50
2018-11-03T04:20:09.164Z,97.79
2018-11-03T04:22:37.189Z,97.61
2018-11-03T04:25:05.446Z,97.52
2018-11-03T04:27:33.711Z,97.23
2018-11-03T04:30:01.674Z,98.43
2018-11-03T04:32:29.666Z,97.91
2018-11-03T04:34:57.782Z,97.70
2018-11-03T04:37:25.760Z,97.60
2018-11-03T04:39:54.053Z,99.07
2018-11-03T04:42:22.024Z,98.55
2018-11-03T04:44:50.223Z,97.81
2018-11-03T04:47:18.243Z,97.91
2018-11-03T04:49:46.283Z,98.25
2018-11-03T04:52:14.186Z,98.56
2018-11-03T04:54:42.135Z,98.56
2018-11-03T04:57:10.297Z,99.20
2018-11-03T04:59:38.578Z,99.22
2018-11-03T05:02:06.806Z,98.71
2018-11-03T05:04:34.732Z,99.66
2018-11-03T05:07:02.835Z,99.02
2018-11-03T05:09:30.793Z,99.14
2018-11-03T05:11:58.774Z,99.92
2018-11-03T05:14:26.664Z,99.11
2018-11-03T05:16:54.702Z,98.82
2018-11-03T05:19:22.691Z,98.66
2018-11-03T05:21:50.758Z,98.50
2018-11-03T05:24:18.919Z,100.00
2018-11-03T05:26:46.977Z,99.12
2018-11-03T05:29:15.017Z,99.11
2018-11-03T05:31:42.987Z,99.01
2018-11-03T05:34:11.322Z,98.66
2018-11-03T05:36:39.441Z,99.79
2018-11-03T05:39:09.732Z,98.31
2018-11-03T05:41:37.909Z,98.57
2018-11-03T05:44:05.874Z,99.86
2018-11-03T05:46:33.894Z,99.06
2018-11-03T05:49:02.113Z,98.42
2018-11-03T05:51:30.014Z,98.32
2018-11-03T05:53:57.984Z,98.11
2018-11-03T05:56:25.965Z,97.40
2018-11-03T05:58:54.196Z,97.80
2018-11-03T06:01:22.172Z,97.33
2018-11-03T06:03:50.472Z,97.36
2018-11-03T06:06:18.467Z,97.74
2018-11-03T06:08:46.699Z,96.47
2018-11-03T06:11:14.941Z,97.02
2018-11-03T06:13:43.192Z,96.75
2018-11-03T06:16:11.660Z,95.97
2018-11-03T06:18:40.545Z,95.53
2018-11-03T06:21:09.057Z,95.06
2018-11-03T06:23:37.360Z,94.96
2018-11-03T06:26:05.878Z,93.56
2018-11-03T06:28:33.991Z,91.07
2018-11-03T06:31:02.210Z,90.01
2018-11-03T06:33:30.342Z,90.56
2018-11-03T06:35:58.388Z,88.67
2018-11-03T06:38:26.440Z,88.58
2018-11-03T06:40:54.542Z,87.88
2018-11-03T06:43:22.715Z,86.33
2018-11-03T06:45:50.859Z,87.56
2018-11-03T06:48:18.876Z,87.92
2018-11-03T06:50:47.136Z,84.18
2018-11-03T06:53:15.460Z,84.63
2018-11-03T06:55:43.397Z,83.23
2018-11-03T06:58:12.661Z,84.90
2018-11-03T07:00:40.867Z,83.04
2018-11-03T07:03:08.900Z,83.40
2018-11-03T07:05:36.989Z,83.87
2018-11-03T07:08:05.512Z,84.59
2018-11-03T07:10:33.626Z,83.56
2018-11-03T07:13:01.961Z,83.39
2018-11-03T07:15:29.959Z,83.45
2018-11-03T07:17:57.900Z,82.97
2018-11-03T07:20:28.682Z,83.36
2018-11-03T07:22:56.971Z,81.88
2018-11-03T07:25:25.176Z,82.07
2018-11-03T07:27:53.408Z,82.91
2018-11-03T07:30:21.712Z,84.78
2018-11-03T07:32:49.881Z,83.36
2018-11-03T07:35:18.076Z,82.78
2018-11-03T07:37:46.207Z,81.04
2018-11-03T07:40:15.238Z,81.44
2018-11-03T07:42:43.575Z,82.93
2018-11-03T07:45:11.682Z,81.29
2018-11-03T07:47:39.633Z,80.41
2018-11-03T07:50:09.789Z,79.96
2018-11-03T07:52:38.068Z,77.91
2018-11-03T07:55:07.449Z,78.49
2018-11-03T07:57:35.883Z,76.98
2018-11-03T08:00:04.525Z,79.59
2018-11-03T08:02:32.798Z,78.27
2018-11-03T08:05:00.948Z,76.56
2018-11-03T08:07:29.142Z,75.27
2018-11-03T08:09:57.431Z,75.73
2018-11-03T08:12:25.501Z,71.49
2018-11-03T08:14:53.510Z,70.39
2018-11-03T08:17:21.490Z,70.77
2018-11-03T08:19:49.805Z,69.26
2018-11-03T08:22:17.867Z,67.21
2018-11-03T08:24:45.913Z,66.10
2018-11-03T08:27:14.020Z,66.63
2018-11-03T08:29:41.956Z,64.78
2018-11-03T08:32:09.984Z,64.62
2018-11-03T08:34:38.021Z,64.18
2018-11-03T08:37:06.128Z,64.96
2018-11-03T08:39:34.128Z,63.92
2018-11-03T08:42:02.136Z,62.77
2018-11-03T08:44:30.093Z,60.90
2018-11-03T08:46:58.141Z,62.35
2018-11-03T08:49:26.083Z,61.58
2018-11-03T08:51:54.048Z,59.73
2018-11-03T08:54:22.013Z,59.71
2018-11-03T08:56:50.036Z,59.36
2018-11-03T08:59:18.183Z,58.96
2018-11-03T09:01:46.228Z,58.99
2018-11-03T09:04:14.193Z,58.37
2018-11-03T09:06:42.322Z,59.29
2018-11-03T09:09:10.530Z,59.84
2018-11-03T09:11:38.575Z,59.24
2018-11-03T09:14:06.964Z,60.10
2018-11-03T09:16:35.074Z,58.64
2018-11-03T09:19:03.347Z,58.52
2018-11-03T09:21:31.568Z,57.45
2018-11-03T09:23:59.641Z,56.82
2018-11-03T09:26:27.665Z,57.50
2018-11-03T09:28:55.692Z,56.17
2018-11-03T09:31:23.744Z,56.72
2018-11-03T09:33:51.745Z,56.34
2018-11-03T09:36:19.947Z,56.40
2018-11-03T09:38:48.184Z,56.51
2018-11-03T09:41:16.004Z,54.15
2018-11-03T09:43:44.138Z,52.78
2018-11-03T09:46:12.144Z,50.36
2018-11-03T09:48:40.232Z,52.10
2018-11-03T09:51:08.390Z,52.60
2018-11-03T09:53:36.553Z,51.72
2018-11-03T09:56:04.667Z,51.65
2018-11-03T09:58:32.946Z,50.31
2018-11-03T10:01:01.024Z,49.84
2018-11-03T10:03:29.165Z,50.26
2018-11-03T10:05:57.398Z,50.51
2018-11-03T10:08:25.773Z,48.48
2018-11-03T10:10:54.002Z,50.15
2018-11-03T10:13:22.250Z,50.72
2018-11-03T10:15:50.407Z,50.24
2018-11-03T10:18:18.426Z,50.01
2018-11-03T10:20:46.667Z,49.03
2018-11-03T10:23:14.956Z,50.05
2018-11-03T10:25:43.180Z,48.84
2018-11-03T10:28:11.588Z,48.51
2018-11-03T10:30:39.743Z,48.40
2018-11-03T10:33:07.884Z,48.42
2018-11-03T10:35:36.068Z,48.52
2018-11-03T10:38:04.521Z,48.77
2018-11-03T10:40:32.834Z,48.45
2018-11-03T10:43:01.111Z,46.97
2018-11-03T10:45:29.294Z,46.71
2018-11-03T10:47:57.495Z,46.45
2018-11-03T10:50:25.748Z,45.41
2018-11-03T10:52:54.446Z,44.61
2018-11-03T10:55:22.683Z,45.22
2018-11-03T10:57:50.962Z,45.56
2018-11-03T11:00:25.758Z,44.94
2018-11-03T11:03:00.055Z,42.67
2018-11-03T11:05:34.455Z,44.22
2018-11-03T11:08:08.900Z,43.41
2018-11-03T11:10:42.634Z,42.47
2018-11-03T11:13:18.911Z,43.65
2018-11-03T11:15:48.199Z,42.86
2018-11-03T11:18:16.632Z,43.29
2018-11-03T11:20:45.737Z,41.74
2018-11-03T11:23:14.306Z,42.02
2018-11-03T11:25:42.823Z,41.67
2018-11-03T11:28:11.074Z,40.53
2018-11-03T11:30:41.646Z,41.06
2018-11-03T11:33:11.604Z,40.12
2018-11-03T11:35:40.125Z,39.19
2018-11-03T11:38:09.632Z,38.83
2018-11-03T11:40:38.771Z,38.72
2018-11-03T11:43:09.535Z,39.73
2018-11-03T11:45:38.008Z,39.46
2018-11-03T11:48:06.382Z,40.62
2018-11-03T11:50:34.678Z,40.48
2018-11-03T11:53:03.067Z,39.38
2018-11-03T11:55:31.663Z,40.47
2018-11-03T11:58:00.126Z,39.33
2018-11-03T12:00:28.590Z,40.64
2018-11-03T12:02:57.089Z,40.08
2018-11-03T12:05:25.409Z,40.26
2018-11-03T12:07:54.097Z,40.68
2018-11-03T12:10:22.614Z,40.42
2018-11-03T12:12:51.403Z,40.36
2018-11-03T12:15:19.832Z,41.27
2018-11-03T12:17:48.174Z,40.68
2018-11-03T12:20:16.519Z,40.64
2018-11-03T12:22:44.913Z,40.35
2018-11-03T12:25:13.265Z,40.55
2018-11-03T12:27:42.175Z,41.22
2018-11-03T12:30:13.146Z,41.84
2018-11-03T12:32:41.595Z,40.88
2018-11-03T12:35:10.775Z,42.32
2018-11-03T12:37:39.922Z,42.21
2018-11-03T12:40:11.725Z,41.91
2018-11-03T12:42:40.057Z,41.46
2018-11-03T12:45:09.185Z,41.05
2018-11-03T12:47:37.542Z,41.67
2018-11-03T12:50:07.557Z,41.09
2018-11-03T12:52:36.202Z,41.16
2018-11-03T12:55:05.107Z,40.47
2018-11-03T12:57:33.370Z,40.33
2018-11-03T13:00:01.758Z,40.28
2018-11-03T13:02:30.483Z,39.90
2018-11-03T13:04:58.919Z,40.14
2018-11-03T13:07:27.080Z,40.82
2018-11-03T13:09:55.526Z,40.48
2018-11-03T13:12:23.887Z,40.19
2018-11-03T13:14:52.366Z,41.75
2018-11-03T13:17:21.613Z,40.94
2018-11-03T13:19:51.087Z,41.65
2018-11-03T13:22:19.486Z,41.04
2018-11-03T13:24:47.642Z,41.03
2018-11-03T13:27:15.806Z,42.42
2018-11-03T13:29:44.018Z,44.30
2018-11-03T13:32:12.229Z,43.69
2018-11-03T13:34:40.595Z,41.67
2018-11-03T13:37:08.791Z,42.67
2018-11-03T13:39:37.095Z,42.42
2018-11-03T13:42:05.538Z,44.02
2018-11-03T13:44:34.185Z,43.76
2018-11-03T13:47:02.779Z,44.13
2018-11-03T13:49:31.497Z,43.45
2018-11-03T13:51:59.930Z,44.24
2018-11-03T13:54:28.059Z,45.25
2018-11-03T13:56:56.289Z,45.77
2018-11-03T13:59:24.437Z,46.23
2018-11-03T14:01:52.672Z,45.14
2018-11-03T14:04:20.887Z,45.84
2018-11-03T14:06:49.001Z,45.93
2018-11-03T14:09:17.273Z,45.90
2018-11-03T14:11:45.593Z,45.88
2018-11-03T14:14:13.934Z,45.98
2018-11-03T14:16:42.371Z,46.48
2018-11-03T14:19:10.631Z,45.81
2018-11-03T14:21:38.892Z,47.61
2018-11-03T14:24:07.042Z,48.79
2018-11-03T14:26:35.259Z,48.53
2018-11-03T14:29:03.595Z,49.00
2018-11-03T14:31:32.052Z,49.85
2018-11-03T14:34:00.482Z,50.91
2018-11-03T14:36:28.864Z,51.17
2018-11-03T14:38:57.900Z,51.31
2018-11-03T14:41:26.464Z,52.08
2018-11-03T14:43:54.869Z,52.96
2018-11-03T14:46:23.739Z,53.71
2018-11-03T14:48:52.094Z,54.26
2018-11-03T14:51:20.491Z,55.29
2018-11-03T14:53:49.202Z,56.33
2018-11-03T14:56:17.605Z,56.73
2018-11-03T14:58:46.919Z,56.30
2018-11-03T15:01:15.259Z,56.58
2018-11-03T15:03:43.586Z,58.31
2018-11-03T15:06:11.714Z,55.98
2018-11-03T15:08:40.145Z,56.93
2018-11-03T15:11:08.843Z,58.54
2018-11-03T15:13:37.173Z,58.32
2018-11-03T15:16:05.837Z,59.56
2018-11-03T15:18:34.158Z,58.81
2018-11-03T15:21:03.116Z,59.60
2018-11-03T15:23:31.224Z,60.22
2018-11-03T15:25:59.469Z,59.31
2018-11-03T15:28:27.824Z,59.02
2018-11-03T15:30:55.948Z,58.41
2018-11-03T15:33:24.093Z,58.33
2018-11-03T15:35:52.469Z,58.07
2018-11-03T15:38:20.720Z,60.31
2018-11-03T15:40:49.550Z,57.53
2018-11-03T15:43:18.133Z,59.10
2018-11-03T15:45:46.486Z,58.06
2018-11-03T15:48:14.980Z,57.33
2018-11-03T15:50:49.136Z,56.87
2018-11-03T15:53:17.607Z,55.92
2018-11-03T15:55:45.931Z,52.92
2018-11-03T15:58:14.440Z,54.03
2018-11-03T16:00:43.017Z,53.56
2018-11-03T16:03:11.239Z,54.85
2018-11-03T16:05:39.432Z,51.84
2018-11-03T16:08:07.584Z,51.71
2018-11-03T16:10:35.745Z,46.60
2018-11-03T16:13:04.069Z,43.87
2018-11-03T16:15:32.433Z,50.15
2018-11-03T16:18:01.199Z,44.09
2018-11-03T16:20:30.281Z,50.16
2018-11-03T16:22:58.748Z,48.12
2018-11-03T16:25:27.093Z,48.59
2018-11-03T16:27:55.314Z,47.04
2018-11-03T16:30:23.908Z,47.15
2018-11-03T16:32:52.260Z,48.87
2018-11-03T16:35:20.715Z,46.62
2018-11-03T16:37:48.864Z,44.45
2018-11-03T16:40:17.566Z,43.07
2018-11-03T16:42:46.086Z,43.43
2018-11-03T16:45:15.631Z,41.42
2018-11-03T16:47:43.996Z,40.53
2018-11-03T16:50:13.814Z,42.79
2018-11-03T16:52:42.471Z,40.94
2018-11-03T16:55:11.818Z,40.66
2018-11-03T16:57:40.091Z,39.27
2018-11-03T17:00:10.632Z,38.95
2018-11-03T17:02:39.097Z,39.50
2018-11-03T17:05:07.999Z,35.60
2018-11-03T17:07:36.297Z,39.30
2018-11-03T17:10:06.540Z,41.85
2018-11-03T17:12:34.978Z,41.79
2018-11-03T17:15:03.220Z,41.53
2018-11-03T17:17:31.507Z,41.21
2018-11-03T17:20:00.273Z,39.44
2018-11-03T17:22:28.771Z,37.70
2018-11-03T17:24:57.211Z,35.13
2018-11-03T17:27:25.892Z,37.23
2018-11-03T17:29:54.250Z,38.31
2018-11-03T17:32:22.434Z,34.06
2018-11-03T17:34:50.688Z,33.69
2018-11-03T17:37:19.112Z,34.97
2018-11-03T17:39:47.482Z,34.11
2018-11-03T17:42:15.670Z,33.89
2018-11-03T17:44:43.857Z,33.85
2018-11-03T17:47:12.048Z,34.58
2018-11-03T17:49:40.374Z,33.47
2018-11-03T17:52:08.604Z,34.36
2018-11-03T17:54:37.925Z,31.52
2018-11-03T17:57:06.061Z,36.12
2018-11-03T17:59:34.270Z,37.40
2018-11-03T18:02:02.805Z,32.65
2018-11-03T18:04:31.173Z,35.21
2018-11-03T18:06:59.798Z,36.18
2018-11-03T18:09:28.549Z,33.60
2018-11-03T18:11:56.798Z,37.74
2018-11-03T18:14:25.317Z,36.06
2018-11-03T18:16:53.795Z,35.57
2018-11-03T18:19:22.053Z,37.49
2018-11-03T18:21:50.584Z,42.46
2018-11-03T18:24:18.859Z,41.84
2018-11-03T18:26:47.482Z,39.83
2018-11-03T18:29:15.813Z,41.40
2018-11-03T18:31:44.609Z,43.81
2018-11-03T18:34:13.145Z,45.45
2018-11-03T18:36:41.692Z,45.04
2018-11-03T18:39:11.225Z,42.21
2018-11-03T18:41:39.917Z,43.22
2018-11-03T18:44:08.934Z,43.47
2018-11-03T18:46:37.405Z,43.25
2018-11-03T18:49:05.858Z,38.16
2018-11-03T18:51:34.365Z,38.33
2018-11-03T18:54:02.846Z,40.12
2018-11-03T18:56:31.414Z,39.75
2018-11-03T18:58:59.830Z,41.47
2018-11-03T19:01:28.197Z,44.93
2018-11-03T19:03:56.463Z,40.18
2018-11-03T19:06:24.864Z,42.57
2018-11-03T19:08:53.130Z,42.06
2018-11-03T19:11:21.423Z,44.64
2018-11-03T19:13:49.952Z,43.35
2018-11-03T19:16:18.287Z,43.00
2018-11-03T19:18:46.752Z,45.45
2018-11-03T19:21:15.225Z,46.55
2018-11-03T19:23:43.699Z,46.19
2018-11-03T19:26:12.155Z,44.96
2018-11-03T19:28:40.512Z,45.37
2018-11-03T19:31:09.114Z,47.35
2018-11-03T19:33:37.404Z,45.49
2018-11-03T19:36:06.298Z,46.36
2018-11-03T19:38:34.769Z,45.21
2018-11-03T19:41:02.976Z,45.15
2018-11-03T19:43:31.190Z,46.57
2018-11-03T19:45:59.332Z,45.94
2018-11-03T19:48:27.509Z,45.99
2018-11-03T19:50:55.825Z,45.75
2018-11-03T19:53:24.007Z,47.26
2018-11-03T19:55:52.394Z,46.40
2018-11-03T19:58:20.675Z,47.27
2018-11-03T20:00:48.881Z,49.57
2018-11-03T20:03:17.156Z,51.50
2018-11-03T20:05:45.328Z,51.59
2018-11-03T20:08:13.451Z,52.92
2018-11-03T20:10:41.795Z,53.17
2018-11-03T20:13:09.963Z,52.38
2018-11-03T20:15:38.143Z,51.65
2018-11-03T20:18:06.439Z,55.53
2018-11-03T20:20:34.493Z,55.06
2018-11-03T20:23:02.754Z,55.38
2018-11-03T20:25:30.860Z,56.95
2018-11-03T20:27:59.050Z,55.87
2018-11-03T20:30:27.291Z,57.27
2018-11-03T20:32:55.850Z,57.49
2018-11-03T20:35:24.112Z,58.19
2018-11-03T20:37:52.273Z,59.27
2018-11-03T20:40:20.481Z,59.49
2018-11-03T20:42:48.739Z,63.43
2018-11-03T20:45:17.055Z,66.93
2018-11-03T20:47:45.206Z,67.06
2018-11-03T20:50:14.232Z,67.83
2018-11-03T20:52:42.516Z,67.21
2018-11-03T20:55:11.554Z,68.51
2018-11-03T20:57:40.038Z,69.75
2018-11-03T21:00:10.323Z,70.13
2018-11-03T21:02:38.571Z,69.89
2018-11-03T21:05:07.658Z,69.55
2018-11-03T21:07:35.828Z,69.73
2018-11-03T21:10:04.277Z,72.60
2018-11-03T21:12:32.450Z,72.93
2018-11-03T21:15:00.559Z,74.74
2018-11-03T21:17:28.819Z,73.56
2018-11-03T21:19:57.113Z,73.29
2018-11-03T21:22:25.329Z,73.44
2018-11-03T21:24:53.504Z,74.18
2018-11-03T21:27:21.676Z,75.56
2018-11-03T21:29:49.952Z,76.04
2018-11-03T21:32:18.249Z,74.44
2018-11-03T21:34:46.461Z,75.12
2018-11-03T21:37:14.596Z,73.69
2018-11-03T21:39:42.828Z,71.00
2018-11-03T21:42:11.003Z,70.33
2018-11-03T21:44:39.450Z,70.70
2018-11-03T21:47:07.827Z,70.55
2018-11-03T21:49:35.885Z,69.48
2018-11-03T21:52:04.369Z,70.01
2018-11-03T21:54:32.610Z,70.23
2018-11-03T21:57:01.575Z,69.01
2018-11-03T21:59:29.913Z,68.92
2018-11-03T22:01:58.033Z,68.80
2018-11-03T22:04:26.016Z,68.28
2018-11-03T22:06:53.991Z,67.83
2018-11-03T22:09:22.035Z,67.90
2018-11-03T22:11:50.056Z,68.50
2018-11-03T22:14:18.085Z,70.50
2018-11-03T22:16:46.116Z,73.37
2018-11-03T22:19:14.253Z,75.34
2018-11-03T22:21:42.215Z,77.71
2018-11-03T22:24:10.087Z,77.50
2018-11-03T22:26:38.012Z,78.56
2018-11-03T22:29:06.137Z,79.04
2018-11-03T22:31:34.103Z,81.61
2018-11-03T22:34:02.064Z,85.54
2018-11-03T22:36:30.240Z,82.32
2018-11-03T22:38:58.925Z,82.77
2018-11-03T22:41:27.023Z,83.68
2018-11-03T22:43:55.093Z,85.03
2018-11-03T22:46:23.075Z,83.56
2018-11-03T22:48:51.158Z,83.37
2018-11-03T22:51:19.214Z,84.16
2018-11-03T22:53:47.141Z,85.98
2018-11-03T22:56:15.162Z,85.47
2018-11-03T22:58:43.151Z,85.05
2018-11-03T23:01:11.043Z,85.68
2018-11-03T23:03:39.000Z,87.45
2018-11-03T23:06:07.031Z,87.01
2018-11-03T23:08:35.030Z,86.19
2018-11-03T23:11:03.055Z,87.22
2018-11-03T23:13:31.080Z,87.26
2018-11-03T23:15:59.367Z,88.20
2018-11-03T23:18:27.310Z,87.27
2018-11-03T23:20:55.273Z,87.36
2018-11-03T23:23:23.225Z,87.55
2018-11-03T23:25:51.121Z,87.97
2018-11-03T23:28:19.072Z,88.30
2018-11-03T23:30:46.982Z,88.83
2018-11-03T23:33:14.920Z,88.41
2018-11-03T23:35:42.840Z,89.76
2018-11-03T23:38:10.877Z,90.15
2018-11-03T23:40:38.769Z,89.22
2018-11-03T23:43:06.704Z,90.12
2018-11-03T23:45:34.596Z,89.42
2018-11-03T23:48:02.559Z,89.12
2018-11-03T23:50:30.558Z,89.24
2018-11-03T23:52:58.407Z,90.27
2018-11-03T23:55:26.345Z,91.33
2018-11-03T23:57:54.517Z,91.56
